createdAt,value
2022-09-12T03:39:51.523Z,100.00
2022-09-12T03:42:54.417Z,100.00
2022-09-12T03:45:56.812Z,100.00
2022-09-12T03:48:59.744Z,100.00
2022-09-12T03:52:02.530Z,100.00
2022-09-12T03:55:06.090Z,100.00
2022-09-12T03:58:08.826Z,100.00
2022-09-12T04:01:15.045Z,100.00
2022-09-12T04:04:17.864Z,100.00
2022-09-12T04:07:20.457Z,100.00
2022-09-12T04:10:27.655Z,100.00
2022-09-12T04:13:30.046Z,100.00
2022-09-12T04:16:32.972Z,100.00
2022-09-12T04:19:35.819Z,100.00
2022-09-12T04:22:38.508Z,100.00
2022-09-12T04:25:40.983Z,100.00
2022-09-12T04:28:44.512Z,100.00
2022-09-12T04:31:47.333Z,100.00
2022-09-12T04:34:50.231Z,100.00
2022-09-12T04:37:52.813Z,100.00
2022-09-12T04:40:57.096Z,100.00
2022-09-12T04:44:02.452Z,100.00
2022-09-12T04:47:05.506Z,100.00
2022-09-12T04:50:08.438Z,100.00
2022-09-12T04:53:11.360Z,100.00
2022-09-12T04:56:13.922Z,100.00
2022-09-12T04:59:18.514Z,100.00
2022-09-12T05:02:21.223Z,100.00
2022-09-12T05:05:23.967Z,100.00
2022-09-12T05:08:26.547Z,100.00
2022-09-12T05:11:53.112Z,100.00
2022-09-12T05:14:55.129Z,100.00
2022-09-12T05:17:57.894Z,100.00
2022-09-12T05:21:02.180Z,100.00
2022-09-12T05:24:06.405Z,100.00
2022-09-12T05:27:09.494Z,100.00
2022-09-12T05:30:12.446Z,100.00
2022-09-12T05:33:15.641Z,100.00
2022-09-12T05:36:24.410Z,100.00
2022-09-12T05:39:27.143Z,100.00
2022-09-12T05:42:30.364Z,100.00
2022-09-12T05:45:33.114Z,98.12
2022-09-12T05:48:37.180Z,97.03
2022-09-12T05:51:43.268Z,96.89
2022-09-12T05:54:47.520Z,95.62
2022-09-12T05:57:50.579Z,95.07
2022-09-12T06:00:53.687Z,95.44
2022-09-12T06:04:00.676Z,93.38
2022-09-12T06:07:03.233Z,94.36
2022-09-12T06:10:06.376Z,91.80
2022-09-12T06:13:08.859Z,91.84
2022-09-12T06:16:21.587Z,90.65
2022-09-12T06:19:25.358Z,87.86
2022-09-12T06:22:28.208Z,88.95
2022-09-12T06:25:30.724Z,88.85
2022-09-12T06:28:36.645Z,87.20
2022-09-12T06:31:41.445Z,85.47
2022-09-12T06:34:48.413Z,85.71
2022-09-12T06:37:51.030Z,84.76
2022-09-12T06:40:53.868Z,85.22
2022-09-12T06:43:57.021Z,84.42
2022-09-12T06:46:59.941Z,82.80
2022-09-12T06:50:02.481Z,82.74
2022-09-12T06:53:05.357Z,81.97
2022-09-12T06:56:12.078Z,81.67
2022-09-12T06:59:14.910Z,79.59
2022-09-12T07:02:17.553Z,79.71
2022-09-12T07:05:20.344Z,78.62
2022-09-12T07:08:23.126Z,76.50
2022-09-12T07:11:26.665Z,77.17
2022-09-12T07:14:29.013Z,77.01
2022-09-12T07:17:31.796Z,76.25
2022-09-12T07:20:34.547Z,74.65
2022-09-12T07:23:37.784Z,71.90
2022-09-12T07:26:41.619Z,70.65
2022-09-12T07:29:47.352Z,69.90
2022-09-12T07:32:54.072Z,66.44
2022-09-12T07:36:03.836Z,65.79
2022-09-12T07:39:06.399Z,64.82
2022-09-12T07:42:09.280Z,66.98
2022-09-12T07:45:12.933Z,67.03
2022-09-12T07:48:16.387Z,68.05
2022-09-12T07:51:19.584Z,66.19
2022-09-12T07:54:22.944Z,65.29
2022-09-12T07:57:25.771Z,65.75
2022-09-12T08:00:35.731Z,64.89
2022-09-12T08:03:39.620Z,63.87
2022-09-12T08:06:42.139Z,63.50
2022-09-12T08:09:45.014Z,63.49
2022-09-12T08:12:47.598Z,61.76
2022-09-12T08:15:50.405Z,60.26
2022-09-12T08:18:53.400Z,58.91
2022-09-12T08:21:56.108Z,59.32
2022-09-12T08:24:58.698Z,61.23
2022-09-12T08:28:01.577Z,60.53
2022-09-12T08:31:10.545Z,60.19
2022-09-12T08:34:13.504Z,60.69
2022-09-12T08:37:16.017Z,62.19
2022-09-12T08:40:19.010Z,61.91
2022-09-12T08:43:59.553Z,60.91
2022-09-12T08:47:17.323Z,61.04
2022-09-12T08:50:22.445Z,60.43
2022-09-12T08:53:30.218Z,59.70
2022-09-12T08:56:38.485Z,60.71
2022-09-12T08:59:48.261Z,59.69
2022-09-12T09:03:44.263Z,56.97
2022-09-12T09:07:14.772Z,57.13
2022-09-12T09:10:30.614Z,56.17
2022-09-12T09:14:01.908Z,55.58
2022-09-12T09:17:20.328Z,55.31
2022-09-12T09:20:39.282Z,53.70
2022-09-12T09:23:46.976Z,53.86
2022-09-12T09:27:00.279Z,55.62
2022-09-12T09:30:03.849Z,53.90
2022-09-12T09:33:15.225Z,54.16
2022-09-12T09:36:59.865Z,51.35
2022-09-12T09:40:23.218Z,50.73
2022-09-12T09:43:29.216Z,51.55
2022-09-12T09:46:32.413Z,50.12
2022-09-12T09:49:36.228Z,50.23
2022-09-12T09:52:39.958Z,50.88
2022-09-12T09:55:43.936Z,50.22
2022-09-12T09:58:46.891Z,48.74
2022-09-12T10:01:53.808Z,46.66
2022-09-12T10:04:58.811Z,48.69
2022-09-12T10:08:03.296Z,49.99
2022-09-12T10:11:30.320Z,49.24
2022-09-12T10:14:36.847Z,47.53
2022-09-12T10:17:46.565Z,46.06
2022-09-12T10:20:49.355Z,47.14
2022-09-12T10:24:28.743Z,48.05
2022-09-12T10:27:33.174Z,51.24
2022-09-12T10:30:36.282Z,50.50
2022-09-12T10:33:44.120Z,49.77
2022-09-12T10:36:47.484Z,49.47
2022-09-12T10:39:54.527Z,49.37
2022-09-12T10:42:59.672Z,47.92
2022-09-12T10:46:14.706Z,47.74
2022-09-12T10:49:40.037Z,47.51
2022-09-12T10:52:42.640Z,45.83
2022-09-12T10:56:04.603Z,45.25
2022-09-12T10:59:26.607Z,45.66
2022-09-12T11:02:33.324Z,45.26
2022-09-12T11:05:51.708Z,43.77
2022-09-12T11:09:06.003Z,44.74
2022-09-12T11:12:18.735Z,43.50
2022-09-12T11:15:27.552Z,46.12
2022-09-12T11:19:04.117Z,45.36
2022-09-12T11:22:22.312Z,44.03
2022-09-12T11:26:03.320Z,46.33
2022-09-12T11:29:28.950Z,46.65
2022-09-12T11:32:43.842Z,46.09
2022-09-12T11:35:55.518Z,46.59
2022-09-12T11:39:03.755Z,46.29
2022-09-12T11:42:15.593Z,43.79
2022-09-12T11:45:18.198Z,42.00
2022-09-12T11:48:33.201Z,41.59
2022-09-12T11:51:49.547Z,41.87
2022-09-12T11:55:12.875Z,43.24
2022-09-12T11:58:20.175Z,46.29
2022-09-12T12:01:42.908Z,47.96
2022-09-12T12:05:03.796Z,47.95
2022-09-12T12:08:07.191Z,49.01
2022-09-12T12:11:12.455Z,50.05
2022-09-12T12:14:22.970Z,48.97
2022-09-12T12:17:27.291Z,50.39
2022-09-12T12:20:29.854Z,45.13
2022-09-12T12:23:35.295Z,45.97
2022-09-12T12:26:40.681Z,43.96
2022-09-12T12:29:45.343Z,44.89
2022-09-12T12:32:47.833Z,43.82
2022-09-12T12:36:09.694Z,42.72
2022-09-12T12:39:33.941Z,40.94
2022-09-12T12:42:36.740Z,38.75
2022-09-12T12:45:39.164Z,38.80
2022-09-12T12:49:00.324Z,42.36
2022-09-12T12:52:03.007Z,42.11
2022-09-12T12:55:06.228Z,40.06
2022-09-12T12:58:37.623Z,33.06
2022-09-12T13:01:51.533Z,31.66
2022-09-12T13:04:59.894Z,33.94
2022-09-12T13:08:10.114Z,37.18
2022-09-12T13:11:55.048Z,35.68
2022-09-12T13:15:00.276Z,32.52
2022-09-12T13:18:14.590Z,31.03
2022-09-12T13:21:21.733Z,28.45
2022-09-12T13:24:24.414Z,26.29
2022-09-12T13:27:27.284Z,20.79
2022-09-12T13:30:39.371Z,19.76
2022-09-12T13:33:54.186Z,20.46
2022-09-12T13:37:17.966Z,22.77
2022-09-12T13:40:26.873Z,24.65
2022-09-12T13:43:39.675Z,25.64
2022-09-12T13:46:42.679Z,28.19
2022-09-12T13:49:46.616Z,31.91
2022-09-12T13:52:58.997Z,29.94
2022-09-12T13:56:01.937Z,23.01
2022-09-12T13:59:12.839Z,19.29
2022-09-12T14:02:23.471Z,16.45
2022-09-12T14:05:26.620Z,14.53
2022-09-12T14:08:30.304Z,13.26
2022-09-12T14:11:33.935Z,12.79
2022-09-12T14:14:42.145Z,12.79
2022-09-12T14:17:51.863Z,13.84
2022-09-12T14:20:57.445Z,12.77
2022-09-12T14:24:01.344Z,13.45
2022-09-12T14:27:04.994Z,16.85
2022-09-12T14:30:32.876Z,19.89
2022-09-12T14:33:54.218Z,22.46
2022-09-12T14:36:58.514Z,25.87
2022-09-12T14:40:01.284Z,26.18
2022-09-12T14:43:04.332Z,28.63
2022-09-12T14:46:24.216Z,29.62
2022-09-12T14:49:36.675Z,29.37
2022-09-12T14:52:40.138Z,29.44
2022-09-12T14:55:47.407Z,29.98
2022-09-12T14:58:50.544Z,27.63
2022-09-12T15:02:21.400Z,24.03
2022-09-12T15:05:26.516Z,20.33
2022-09-12T15:08:30.395Z,17.22
2022-09-12T15:11:33.825Z,16.86
2022-09-12T15:14:36.666Z,15.09
2022-09-12T15:17:39.225Z,15.11
